Time;durP1;ratioP1;P1;durP2;ratioP2;P2;SDS_P1;SDS_P2;PMS_P1;PMS_P2;Temp;Humidity;BMP_temperature;BMP_pressure;BME280_temperature;BME280_humidity;BME280_pressure;Samples;Min_cycle;Max_cycle;Signal;HPM_P1;HPM_P2
2023/06/11 00:01:55;;;;;;;1999.90;999.90;;;21.30;89.20;;;;;;5057956;28;20044;-74
2023/06/11 00:04:27;;;;;;;1999.90;999.90;;;21.30;90.00;;;;;;5065170;28;20621;-74
2023/06/11 00:07:00;;;;;;;1999.90;999.90;;;21.20;91.00;;;;;;5064247;28;20060;-74
2023/06/11 00:09:28;;;;;;;1999.90;999.90;;;21.40;90.30;;;;;;5053061;28;20043;-72
2023/06/11 00:11:56;;;;;;;1999.90;999.90;;;21.70;90.00;;;;;;5056394;28;20483;-73
2023/06/11 00:14:24;;;;;;;1999.90;999.90;;;21.70;89.00;;;;;;5058892;28;20025;-72
2023/06/11 00:16:52;;;;;;;1999.90;999.90;;;22.10;88.50;;;;;;5052227;28;20021;-73
2023/06/11 00:19:20;;;;;;;1999.90;999.90;;;22.30;88.40;;;;;;5050835;28;20578;-72
2023/06/11 00:21:48;;;;;;;1999.90;999.90;;;22.40;86.60;;;;;;5054412;28;20041;-73
2023/06/11 00:24:16;;;;;;;1999.90;999.90;;;22.30;88.30;;;;;;5059597;28;20013;-73
2023/06/11 00:26:43;;;;;;;1999.90;999.90;;;22.40;88.30;;;;;;5056685;28;20132;-74
2023/06/11 00:29:11;;;;;;;1999.90;999.90;;;22.60;88.20;;;;;;5067516;28;20020;-71
2023/06/11 00:31:38;;;;;;;1999.90;999.90;;;23.10;86.00;;;;;;5053362;28;20112;-74
2023/06/11 00:34:05;;;;;;;1999.90;999.90;;;23.40;85.80;;;;;;5055252;28;20017;-72
2023/06/11 00:36:33;;;;;;;1999.90;999.90;;;23.40;86.00;;;;;;5053724;28;20025;-72
2023/06/11 00:39:00;;;;;;;1999.90;999.90;;;23.40;86.40;;;;;;5061862;28;20052;-73
2023/06/11 00:41:30;;;;;;;1999.90;999.90;;;23.40;85.80;;;;;;5055666;28;20103;-73
2023/06/11 00:43:58;;;;;;;1999.90;999.90;;;23.60;84.10;;;;;;5056059;28;20025;-74
2023/06/11 00:46:26;;;;;;;1999.90;999.90;;;23.50;85.90;;;;;;5058204;28;20041;-74
2023/06/11 00:48:53;;;;;;;1999.90;999.90;;;24.30;84.10;;;;;;5051443;28;20038;-74
2023/06/11 00:51:25;;;;;;;1999.90;999.90;;;24.30;83.40;;;;;;5050893;28;20037;-73
2023/06/11 00:53:54;;;;;;;1999.90;999.90;;;24.60;83.50;;;;;;5061313;28;20452;-73
2023/06/11 00:56:21;;;;;;;1999.90;999.90;;;24.70;83.10;;;;;;5049278;28;20025;-74
2023/06/11 00:58:49;;;;;;;1999.90;999.90;;;24.40;83.00;;;;;;5047645;28;20080;-73
2023/06/11 01:01:25;;;;;;;1999.90;999.90;;;24.40;83.80;;;;;;5051539;28;20067;-73
2023/06/11 01:03:54;;;;;;;;;;;25.00;82.20;;;;;;5051646;28;20082;-73
2023/06/11 01:06:28;;;;;;;1999.90;999.90;;;25.10;81.70;;;;;;5054459;28;20385;-72
2023/06/11 01:08:58;;;;;;;1999.90;999.90;;;25.10;82.10;;;;;;5052123;28;20111;-74
2023/06/11 01:11:27;;;;;;;1999.90;999.90;;;25.50;81.40;;;;;;5059189;28;20031;-72
2023/06/11 01:13:54;;;;;;;1999.90;999.90;;;25.70;80.20;;;;;;5063512;28;20452;-69
2023/06/11 01:16:36;;;;;;;1999.90;999.90;;;25.70;79.50;;;;;;5054429;28;20045;-72
2023/06/11 01:19:22;;;;;;;1999.90;999.90;;;25.80;81.30;;;;;;5063872;28;20056;-71
2023/06/11 01:21:59;;;;;;;1999.90;999.90;;;26.30;79.50;;;;;;5054360;28;20024;-74
2023/06/11 01:24:44;;;;;;;1999.90;999.90;;;26.00;80.00;;;;;;5059435;28;20281;-71
2023/06/11 01:27:35;;;;;;;1999.90;999.90;;;26.10;79.40;;;;;;5060270;28;20093;-76
2023/06/11 01:30:04;;;;;;;1999.90;999.90;;;26.00;79.10;;;;;;5060131;28;20716;-71
2023/06/11 01:32:32;;;;;;;1999.90;999.90;;;26.20;78.70;;;;;;5052814;28;20024;-74
2023/06/11 01:35:03;;;;;;;1999.90;999.90;;;26.30;78.60;;;;;;5054125;28;20024;-71
2023/06/11 01:37:32;;;;;;;1999.90;999.90;;;26.40;77.60;;;;;;5051839;28;20075;-73
2023/06/11 01:40:00;;;;;;;1999.90;999.90;;;26.20;78.40;;;;;;5056270;28;20032;-74
2023/06/11 01:42:27;;;;;;;1999.90;999.90;;;26.30;78.30;;;;;;5046385;28;20033;-72
2023/06/11 01:44:55;;;;;;;1999.90;999.90;;;26.50;77.40;;;;;;5059836;28;20106;-70
2023/06/11 01:47:22;;;;;;;1999.90;999.90;;;26.70;77.20;;;;;;5054159;28;20071;-73
2023/06/11 01:49:50;;;;;;;1999.90;999.90;;;26.70;76.90;;;;;;5052727;28;20446;-74
2023/06/11 01:52:17;;;;;;;1999.90;999.90;;;26.60;77.10;;;;;;5053819;28;20061;-75
2023/06/11 01:54:44;;;;;;;1999.90;999.90;;;26.50;77.30;;;;;;5054277;28;20024;-74
2023/06/11 01:57:13;;;;;;;1999.90;999.90;;;26.40;75.90;;;;;;5053101;28;20535;-73
2023/06/11 01:59:40;;;;;;;1999.90;999.90;;;26.30;76.50;;;;;;5059548;28;20039;-74
2023/06/11 02:02:08;;;;;;;1999.90;999.90;;;26.20;75.90;;;;;;5056010;28;20131;-70
2023/06/11 02:04:35;;;;;;;1999.90;999.90;;;25.80;77.30;;;;;;5055057;28;20024;-73
2023/06/11 02:07:02;;;;;;;1999.90;999.90;;;25.90;77.30;;;;;;5051652;28;20033;-71
2023/06/11 02:09:30;;;;;;;1999.90;999.90;;;26.10;76.90;;;;;;5056197;28;20025;-72
2023/06/11 02:11:57;;;;;;;1999.90;999.90;;;26.10;77.90;;;;;;5056958;28;20032;-73
2023/06/11 02:14:24;;;;;;;1999.90;999.90;;;26.40;77.70;;;;;;5058422;28;20546;-71
2023/06/11 02:16:52;;;;;;;1999.90;999.90;;;26.50;77.30;;;;;;5059170;28;20036;-69
2023/06/11 02:19:19;;;;;;;1999.90;999.90;;;26.40;76.60;;;;;;5055796;28;20392;-72
2023/06/11 02:21:46;;;;;;;1999.90;999.90;;;25.90;76.90;;;;;;5053013;28;20044;-73
2023/06/11 02:24:15;;;;;;;1999.90;999.90;;;25.60;77.50;;;;;;5061737;28;20028;-72
2023/06/11 02:26:42;;;;;;;1999.90;999.90;;;25.50;78.00;;;;;;5050975;28;20057;-74
2023/06/11 02:29:09;;;;;;;1999.90;999.90;;;25.50;79.20;;;;;;5054393;28;20108;-72
2023/06/11 02:31:37;;;;;;;1999.90;999.90;;;25.40;77.90;;;;;;5059703;28;20684;-72
2023/06/11 02:34:04;;;;;;;1999.90;999.90;;;25.10;77.80;;;;;;5055697;28;20024;-73
2023/06/11 02:36:31;;;;;;;1999.90;999.90;;;24.80;78.40;;;;;;5059973;28;20024;-73
2023/06/11 02:38:59;;;;;;;1999.90;999.90;;;25.00;78.90;;;;;;5058792;28;20107;-71
2023/06/11 02:41:26;;;;;;;1999.90;999.90;;;25.30;79.30;;;;;;5058458;28;20028;-73
2023/06/11 02:43:54;;;;;;;1999.90;999.90;;;25.40;77.90;;;;;;5064485;28;20032;-73
2023/06/11 02:46:21;;;;;;;1999.90;999.90;;;25.00;78.00;;;;;;5057966;28;20120;-72
2023/06/11 02:48:48;;;;;;;1999.90;999.90;;;24.70;78.40;;;;;;5058435;28;20025;-73
2023/06/11 02:51:16;;;;;;;1999.90;999.90;;;24.40;78.20;;;;;;5052741;28;20052;-71
2023/06/11 02:53:44;;;;;;;1999.90;999.90;;;24.10;78.40;;;;;;5068551;28;20040;-73
2023/06/11 02:56:12;;;;;;;1999.90;999.90;;;23.50;79.30;;;;;;5062748;28;20043;-73
2023/06/11 02:58:39;;;;;;;1999.90;999.90;;;23.30;80.00;;;;;;5063440;28;20040;-72
2023/06/11 03:01:06;;;;;;;1999.90;999.90;;;23.10;80.40;;;;;;5062700;28;20040;-74
2023/06/11 03:03:33;;;;;;;1999.90;999.90;;;23.00;79.40;;;;;;5064564;28;20051;-74
2023/06/11 03:06:01;;;;;;;1999.90;999.90;;;23.10;80.60;;;;;;5054117;28;20503;-73
2023/06/11 03:08:28;;;;;;;1999.90;999.90;;;23.10;79.70;;;;;;5065442;28;20029;-72
2023/06/11 03:10:57;;;;;;;1999.90;999.90;;;22.90;80.30;;;;;;5059672;28;20055;-73
2023/06/11 03:13:25;;;;;;;1999.90;999.90;;;22.80;80.50;;;;;;5060379;28;20036;-72
2023/06/11 03:15:52;;;;;;;1999.90;999.90;;;22.50;80.10;;;;;;5058822;28;20088;-73
2023/06/11 03:18:19;;;;;;;1999.90;999.90;;;22.20;79.40;;;;;;5060750;28;20032;-72
2023/06/11 03:20:47;;;;;;;1999.90;999.90;;;22.00;81.10;;;;;;5058959;28;20763;-72
2023/06/11 03:23:17;;;;;;;1999.90;999.90;;;21.60;81.20;;;;;;5062224;28;20531;-72
2023/06/11 03:25:44;;;;;;;1999.90;999.90;;;21.40;82.40;;;;;;5063579;28;20128;-72
2023/06/11 03:28:12;;;;;;;1999.90;999.90;;;21.20;82.90;;;;;;5059854;28;20029;-71
2023/06/11 03:30:39;;;;;;;1999.90;999.90;;;21.00;82.90;;;;;;5052189;28;20021;-72
2023/06/11 03:33:06;;;;;;;1999.90;999.90;;;20.60;82.70;;;;;;5055012;28;20041;-69
2023/06/11 03:35:34;;;;;;;1999.90;999.90;;;20.20;83.40;;;;;;5048037;28;20040;-71
2023/06/11 03:38:01;;;;;;;1999.90;999.90;;;20.00;84.40;;;;;;5061912;28;20059;-68
2023/06/11 03:40:29;;;;;;;1999.90;999.90;;;19.60;85.30;;;;;;5057948;28;20029;-70
2023/06/11 03:42:56;;;;;;;1999.90;999.90;;;19.40;85.50;;;;;;5063399;28;20025;-71
2023/06/11 03:45:23;;;;;;;1999.90;999.90;;;19.10;85.60;;;;;;5058963;28;20135;-69
2023/06/11 03:47:55;;;;;;;1999.90;999.90;;;18.90;86.10;;;;;;5055914;28;20037;-69
2023/06/11 03:50:23;;;;;;;1999.90;999.90;;;18.70;87.20;;;;;;5056247;28;20032;-69
2023/06/11 03:52:51;;;;;;;1999.90;999.90;;;18.60;87.00;;;;;;5055904;28;20036;-69
2023/06/11 03:55:18;;;;;;;1999.90;999.90;;;18.50;87.60;;;;;;5059874;28;20032;-69
2023/06/11 03:57:45;;;;;;;1999.90;999.90;;;18.40;88.40;;;;;;5051711;28;20031;-69
2023/06/11 04:00:13;;;;;;;1999.90;999.90;;;18.30;89.10;;;;;;5060156;28;20045;-72
2023/06/11 04:02:40;;;;;;;1999.90;999.90;;;18.20;89.00;;;;;;5057057;28;20035;-69
2023/06/11 04:05:08;;;;;;;1999.90;999.90;;;18.20;88.90;;;;;;5054806;28;20028;-70
2023/06/11 04:07:39;;;;;;;1999.90;999.90;;;18.10;89.00;;;;;;5065674;28;20064;-71
2023/06/11 04:10:07;;;;;;;1999.90;999.90;;;18.20;89.40;;;;;;5063630;28;20039;-69
2023/06/11 04:12:35;;;;;;;1999.90;999.90;;;18.20;89.50;;;;;;5048714;28;20028;-69
2023/06/11 04:15:02;;;;;;;1999.90;999.90;;;18.20;88.70;;;;;;5061247;28;20063;-70
2023/06/11 04:17:30;;;;;;;1999.90;999.90;;;18.10;89.20;;;;;;5050149;28;20130;-68
2023/06/11 04:19:57;;;;;;;1999.90;999.90;;;18.00;89.10;;;;;;5048282;28;20067;-68
2023/06/11 04:22:25;;;;;;;1999.90;999.90;;;18.00;89.40;;;;;;5053007;28;20061;-68
2023/06/11 04:24:53;;;;;;;1999.90;999.90;;;17.80;89.60;;;;;;5053773;28;20491;-72
2023/06/11 04:27:21;;;;;;;1999.90;999.90;;;17.80;89.40;;;;;;5057798;28;20130;-69
2023/06/11 04:29:48;;;;;;;1999.90;999.90;;;17.80;89.70;;;;;;5054748;28;20039;-70
2023/06/11 04:32:16;;;;;;;1999.90;999.90;;;17.80;90.10;;;;;;5043961;28;20032;-70
2023/06/11 04:34:48;;;;;;;1999.90;999.90;;;17.80;89.70;;;;;;5057406;28;20024;-70
2023/06/11 04:37:16;;;;;;;1999.90;999.90;;;17.70;90.00;;;;;;5050816;28;20063;-68
2023/06/11 04:39:44;;;;;;;1999.90;999.90;;;17.70;90.50;;;;;;5056901;28;20039;-68
2023/06/11 04:42:14;;;;;;;1999.90;999.90;;;17.70;90.20;;;;;;5067167;28;20116;-67
2023/06/11 04:44:41;;;;;;;1999.90;999.90;;;17.60;90.10;;;;;;5057438;28;20032;-67
2023/06/11 04:47:10;;;;;;;1999.90;999.90;;;17.50;90.30;;;;;;5057916;28;20467;-68
2023/06/11 04:49:40;;;;;;;1999.90;999.90;;;17.50;90.30;;;;;;5050888;28;20029;-69
2023/06/11 04:52:08;;;;;;;1999.90;999.90;;;17.50;90.20;;;;;;5056025;28;20541;-70
2023/06/11 04:54:35;;;;;;;1999.90;999.90;;;17.60;90.10;;;;;;5060167;28;20037;-68
2023/06/11 04:57:03;;;;;;;1999.90;999.90;;;17.60;88.40;;;;;;5058325;28;20083;-72
2023/06/11 04:59:30;;;;;;;1999.90;999.90;;;17.60;89.40;;;;;;5056201;28;20051;-72
2023/06/11 05:01:58;;;;;;;1999.90;999.90;;;17.60;89.80;;;;;;5047733;28;20571;-70
2023/06/11 05:04:25;;;;;;;1999.90;999.90;;;17.50;90.00;;;;;;5051188;28;20450;-71
2023/06/11 05:06:54;;;;;;;1999.90;999.90;;;17.50;90.00;;;;;;5050994;28;20413;-72
2023/06/11 05:09:22;;;;;;;1999.90;999.90;;;17.40;90.10;;;;;;5054168;28;20785;-70
2023/06/11 05:11:49;;;;;;;1999.90;999.90;;;17.40;90.30;;;;;;5050517;28;20044;-72
2023/06/11 05:14:16;;;;;;;1999.90;999.90;;;17.50;90.50;;;;;;5061029;28;20471;-68
2023/06/11 05:16:43;;;;;;;1999.90;999.90;;;17.40;90.30;;;;;;5056977;28;20029;-71
2023/06/11 05:19:11;;;;;;;1999.90;999.90;;;17.50;90.40;;;;;;5061484;28;20115;-70
2023/06/11 05:21:40;;;;;;;1999.90;999.90;;;17.40;90.50;;;;;;5053358;28;20135;-75
2023/06/11 05:24:07;;;;;;;1999.90;999.90;;;17.40;90.50;;;;;;5056462;28;20032;-70
2023/06/11 05:26:38;;;;;;;1999.90;999.90;;;17.40;90.40;;;;;;5062048;28;20052;-70
2023/06/11 05:29:06;;;;;;;1999.90;999.90;;;17.30;90.50;;;;;;5064584;28;20016;-74
2023/06/11 05:31:35;;;;;;;1999.90;999.90;;;17.30;90.80;;;;;;5053901;28;20688;-74
2023/06/11 05:34:03;;;;;;;1999.90;999.90;;;17.30;90.40;;;;;;5059793;28;20041;-71
2023/06/11 05:36:31;;;;;;;1999.90;999.90;;;17.30;90.50;;;;;;5049354;28;20387;-73
2023/06/11 05:38:58;;;;;;;1999.90;999.90;;;17.30;90.60;;;;;;5065959;28;20037;-72
2023/06/11 05:41:25;;;;;;;1999.90;999.90;;;17.30;90.50;;;;;;5055387;28;20055;-69
2023/06/11 05:43:52;;;;;;;1999.90;999.90;;;17.30;90.20;;;;;;5060510;28;20020;-71
2023/06/11 05:46:23;;;;;;;1999.90;999.90;;;17.20;90.20;;;;;;5054814;28;20037;-71
2023/06/11 05:48:51;;;;;;;1999.90;999.90;;;17.10;90.30;;;;;;5053913;28;20025;-72
2023/06/11 05:51:19;;;;;;;1999.90;999.90;;;17.10;90.50;;;;;;5051660;28;20033;-78
2023/06/11 05:53:46;;;;;;;1999.90;999.90;;;17.10;90.80;;;;;;5051366;28;20021;-71
2023/06/11 05:56:13;;;;;;;1999.90;999.90;;;17.10;90.90;;;;;;5052613;28;20380;-71
2023/06/11 05:58:40;;;;;;;1999.90;999.90;;;17.10;91.10;;;;;;5054881;28;20032;-71
2023/06/11 06:01:12;;;;;;;1999.90;999.90;;;17.10;91.10;;;;;;5058106;28;20044;-71
2023/06/11 06:03:39;;;;;;;1999.90;999.90;;;17.20;91.10;;;;;;5058722;28;20119;-70
2023/06/11 06:06:08;;;;;;;1999.90;999.90;;;17.20;91.00;;;;;;5051519;28;20040;-70
2023/06/11 06:08:36;;;;;;;1999.90;999.90;;;17.30;90.90;;;;;;5055686;28;20029;-71
2023/06/11 06:11:03;;;;;;;1999.90;999.90;;;17.40;91.00;;;;;;5051339;28;20032;-73
2023/06/11 06:13:30;;;;;;;1999.90;999.90;;;17.40;91.10;;;;;;5055896;28;20024;-70
2023/06/11 06:15:58;;;;;;;1999.90;999.90;;;17.50;91.30;;;;;;5056266;28;20040;-69
2023/06/11 06:18:27;;;;;;;1999.90;999.90;;;17.50;91.10;;;;;;5061467;28;20024;-70
2023/06/11 06:20:56;;;;;;;1999.90;999.90;;;17.40;90.90;;;;;;5058862;28;20052;-73
2023/06/11 06:23:24;;;;;;;1999.90;999.90;;;17.40;91.10;;;;;;5049874;28;20028;-70
2023/06/11 06:25:51;;;;;;;1999.90;999.90;;;17.40;91.30;;;;;;5051589;28;22113;-71
2023/06/11 06:28:19;;;;;;;1999.90;999.90;;;17.30;91.30;;;;;;5062101;28;20029;-70
2023/06/11 06:30:46;;;;;;;1999.90;999.90;;;17.20;91.50;;;;;;5064242;28;20095;-71
2023/06/11 06:33:13;;;;;;;1999.90;999.90;;;17.10;91.60;;;;;;5062749;28;20048;-70
2023/06/11 06:35:41;;;;;;;1999.90;999.90;;;16.90;91.70;;;;;;5056088;28;20052;-70
2023/06/11 06:38:08;;;;;;;1999.90;999.90;;;16.80;91.90;;;;;;5061678;28;20063;-72
2023/06/11 06:40:35;;;;;;;1999.90;999.90;;;16.60;92.30;;;;;;5060772;28;20021;-70
2023/06/11 06:43:03;;;;;;;1999.90;999.90;;;16.40;92.60;;;;;;5058255;28;20050;-70
2023/06/11 06:45:30;;;;;;;1999.90;999.90;;;16.10;92.80;;;;;;5061916;28;20211;-72
2023/06/11 06:47:57;;;;;;;1999.90;999.90;;;15.90;93.30;;;;;;5059442;28;20428;-70
2023/06/11 06:50:25;;;;;;;1999.90;999.90;;;15.70;93.70;;;;;;5060196;28;20025;-69
2023/06/11 06:52:52;;;;;;;1999.90;999.90;;;15.50;94.10;;;;;;5061257;28;20016;-69
2023/06/11 06:55:19;;;;;;;1999.90;999.90;;;15.30;94.60;;;;;;5061171;28;20032;-70
2023/06/11 06:57:46;;;;;;;1999.90;999.90;;;15.10;94.90;;;;;;5061932;28;20055;-69
2023/06/11 07:00:16;;;;;;;1999.90;999.90;;;15.00;95.30;;;;;;5059241;28;20492;-69
2023/06/11 07:02:43;;;;;;;1999.90;999.90;;;14.90;95.50;;;;;;5060764;28;20031;-72
2023/06/11 07:05:10;;;;;;;1999.90;999.90;;;14.80;95.80;;;;;;5060532;28;20045;-69
2023/06/11 07:07:37;;;;;;;1999.90;999.90;;;14.60;95.90;;;;;;5053342;28;20439;-69
2023/06/11 07:10:05;;;;;;;1999.90;999.90;;;14.40;96.10;;;;;;5061704;28;20028;-69
2023/06/11 07:12:33;;;;;;;1999.90;999.90;;;14.30;96.40;;;;;;5055909;28;20025;-70
2023/06/11 07:15:00;;;;;;;1999.90;999.90;;;14.10;96.70;;;;;;5050507;28;20037;-70
2023/06/11 07:17:28;;;;;;;1999.90;999.90;;;14.00;97.00;;;;;;5054516;28;20369;-70
2023/06/11 07:19:55;;;;;;;1999.90;999.90;;;13.90;97.40;;;;;;5062999;28;20041;-69
2023/06/11 07:22:22;;;;;;;1999.90;999.90;;;13.90;98.00;;;;;;5054301;28;20032;-69
2023/06/11 07:24:50;;;;;;;1999.90;999.90;;;13.80;98.10;;;;;;5054651;28;20392;-69
2023/06/11 07:27:17;;;;;;;1999.90;999.90;;;13.70;98.50;;;;;;5057064;28;20037;-69
2023/06/11 07:29:44;;;;;;;1999.90;999.90;;;13.60;98.80;;;;;;5058471;28;20029;-69
2023/06/11 07:32:13;;;;;;;1999.90;999.90;;;13.60;99.10;;;;;;5055633;28;20435;-70
2023/06/11 07:34:42;;;;;;;1999.90;999.90;;;13.60;99.30;;;;;;5056252;28;20381;-70
2023/06/11 07:37:09;;;;;;;1999.90;999.90;;;13.50;99.60;;;;;;5053691;28;20033;-68
2023/06/11 07:39:36;;;;;;;1999.90;999.90;;;13.40;99.70;;;;;;5060394;28;20036;-68
2023/06/11 07:42:05;;;;;;;1999.90;999.90;;;13.20;99.90;;;;;;5058740;28;20029;-69
2023/06/11 07:44:32;;;;;;;1999.90;999.90;;;13.10;99.90;;;;;;5057332;28;20025;-70
2023/06/11 07:47:00;;;;;;;1999.90;999.90;;;13.00;99.90;;;;;;5054637;28;20396;-70
2023/06/11 07:49:27;;;;;;;1999.90;999.90;;;12.80;99.90;;;;;;5058414;28;20083;-69
2023/06/11 07:51:54;;;;;;;1999.90;999.90;;;12.70;99.90;;;;;;5058873;28;20073;-69
2023/06/11 07:54:21;;;;;;;1999.90;999.90;;;12.60;99.90;;;;;;5049774;28;20032;-69
2023/06/11 07:56:49;;;;;;;1999.90;999.90;;;12.60;99.90;;;;;;5051820;28;20017;-69
2023/06/11 07:59:16;;;;;;;1999.90;999.90;;;12.50;99.90;;;;;;5059354;28;20262;-70
2023/06/11 08:01:43;;;;;;;1999.90;999.90;;;12.50;99.90;;;;;;5052135;28;20557;-70
2023/06/11 08:04:11;;;;;;;1999.90;999.90;;;12.40;99.90;;;;;;5058471;28;20052;-68
2023/06/11 08:06:38;;;;;;;1999.90;999.90;;;12.40;99.90;;;;;;5056982;28;20449;-71
2023/06/11 08:09:08;;;;;;;1999.90;999.90;;;12.30;99.90;;;;;;5061418;28;20035;-70
2023/06/11 08:11:35;;;;;;;1999.90;999.90;;;12.30;99.90;;;;;;5054078;28;20024;-70
2023/06/11 08:14:02;;;;;;;1999.90;999.90;;;12.20;99.90;;;;;;5060843;28;20100;-71
2023/06/11 08:16:30;;;;;;;1999.90;999.90;;;12.20;99.90;;;;;;5053337;28;20096;-73
2023/06/11 08:18:57;;;;;;;1999.90;999.90;;;12.10;99.90;;;;;;5060170;28;20102;-71
2023/06/11 08:21:25;;;;;;;1999.90;999.90;;;12.10;99.90;;;;;;5057579;28;20920;-72
2023/06/11 08:23:52;;;;;;;1999.90;999.90;;;12.10;99.90;;;;;;5061936;28;20048;-70
2023/06/11 08:26:20;;;;;;;1999.90;999.90;;;12.10;99.90;;;;;;5056205;28;20034;-72
2023/06/11 08:28:48;;;;;;;1999.90;999.90;;;12.10;99.90;;;;;;5058395;28;20068;-73
2023/06/11 08:31:15;;;;;;;1999.90;999.90;;;12.10;99.90;;;;;;5062927;28;20056;-72
2023/06/11 08:33:43;;;;;;;1999.90;999.90;;;12.10;99.90;;;;;;5052085;28;20024;-72
2023/06/11 08:36:10;;;;;;;1999.90;999.90;;;12.10;99.90;;;;;;5057786;28;20035;-71
2023/06/11 08:38:37;;;;;;;1999.90;999.90;;;12.00;99.90;;;;;;5054347;28;20025;-70
2023/06/11 08:41:05;;;;;;;1999.90;999.90;;;12.00;99.90;;;;;;5056079;28;20021;-71
2023/06/11 08:43:33;;;;;;;1999.90;999.90;;;11.90;99.90;;;;;;5054316;28;20055;-72
2023/06/11 08:46:00;;;;;;;1999.90;999.90;;;11.90;99.90;;;;;;5053884;28;20055;-71
2023/06/11 08:48:31;;;;;;;1999.90;999.90;;;11.90;99.90;;;;;;5053283;28;20028;-71
2023/06/11 08:51:02;;;;;;;1999.90;999.90;;;11.80;99.90;;;;;;5053392;28;20112;-72
2023/06/11 08:53:30;;;;;;;1999.90;999.90;;;11.70;99.90;;;;;;5055248;28;20104;-72
2023/06/11 08:55:59;;;;;;;1999.90;999.90;;;11.70;99.90;;;;;;5055837;28;20045;-72
2023/06/11 08:58:27;;;;;;;1999.90;999.90;;;11.60;99.90;;;;;;5060609;28;20063;-71
2023/06/11 09:00:55;;;;;;;1999.90;999.90;;;11.50;99.90;;;;;;5051948;28;20090;-72
2023/06/11 09:03:22;;;;;;;1999.90;999.90;;;11.50;99.90;;;;;;5056899;28;20029;-71
2023/06/11 09:05:50;;;;;;;1999.90;999.90;;;11.40;99.90;;;;;;5051898;28;20120;-72
2023/06/11 09:08:17;;;;;;;1999.90;999.90;;;11.40;99.90;;;;;;5056283;28;20028;-70
2023/06/11 09:10:51;;;;;;;1999.90;999.90;;;11.30;99.90;;;;;;5047950;28;20072;-70
2023/06/11 09:13:24;;;;;;;1999.90;999.90;;;11.30;99.90;;;;;;5050846;28;20032;-70
2023/06/11 09:15:54;;;;;;;1999.90;999.90;;;11.30;99.90;;;;;;5064701;28;20021;-71
2023/06/11 09:18:23;;;;;;;1999.90;999.90;;;11.20;99.90;;;;;;5051874;28;20036;-72
2023/06/11 09:20:54;;;;;;;1999.90;999.90;;;11.20;99.90;;;;;;5054717;28;20017;-73
2023/06/11 09:23:33;;;;;;;1999.90;999.90;;;11.10;99.90;;;;;;5055697;28;20115;-72
2023/06/11 09:26:00;;;;;;;1999.90;999.90;;;11.00;99.90;;;;;;5047188;28;20081;-72
2023/06/11 09:28:32;;;;;;;1999.90;999.90;;;10.90;99.90;;;;;;5056945;28;20055;-75
2023/06/11 09:31:01;;;;;;;1999.90;999.90;;;10.90;99.90;;;;;;5053240;28;20060;-73
2023/06/11 09:33:31;;;;;;;1999.90;999.90;;;10.90;99.90;;;;;;5049538;28;20087;-74
2023/06/11 09:36:01;;;;;;;1999.90;999.90;;;10.90;99.90;;;;;;5056630;28;20033;-69
2023/06/11 09:38:28;;;;;;;1999.90;999.90;;;10.90;99.90;;;;;;5057590;28;20040;-72
2023/06/11 09:40:57;;;;;;;1999.90;999.90;;;10.90;99.90;;;;;;5059086;28;20033;-72
2023/06/11 09:43:25;;;;;;;1999.90;999.90;;;10.90;99.90;;;;;;5060197;28;20371;-73
2023/06/11 09:45:54;;;;;;;1999.90;999.90;;;10.90;99.90;;;;;;5049995;28;20554;-72
2023/06/11 09:48:23;;;;;;;1999.90;999.90;;;10.80;99.90;;;;;;5054429;28;20051;-72
2023/06/11 09:50:51;;;;;;;1999.90;999.90;;;10.70;99.90;;;;;;5055796;28;20098;-73
2023/06/11 09:53:20;;;;;;;1999.90;999.90;;;10.60;99.90;;;;;;5059961;28;20025;-73
2023/06/11 09:55:50;;;;;;;1999.90;999.90;;;10.60;99.90;;;;;;5056571;28;20040;-74
2023/06/11 09:58:23;;;;;;;1999.90;999.90;;;10.60;99.90;;;;;;5062447;28;20098;-73
2023/06/11 10:00:52;;;;;;;1999.90;999.90;;;10.50;99.90;;;;;;5060712;28;20057;-72
2023/06/11 10:03:22;;;;;;;1999.90;999.90;;;10.50;99.90;;;;;;5058779;28;20037;-70
2023/06/11 10:05:50;;;;;;;1999.90;999.90;;;10.50;99.90;;;;;;5055751;28;20055;-71
2023/06/11 10:08:23;;;;;;;1999.90;999.90;;;10.40;99.90;;;;;;5054659;28;20059;-71
2023/06/11 10:10:56;;;;;;;1999.90;999.90;;;10.40;99.90;;;;;;5052232;28;20607;-71
2023/06/11 10:13:34;;;;;;;1999.90;999.90;;;10.40;99.90;;;;;;5057416;28;20035;-70
2023/06/11 10:16:02;;;;;;;1999.90;999.90;;;10.30;99.90;;;;;;5057935;28;20036;-70
2023/06/11 10:18:30;;;;;;;1999.90;999.90;;;10.30;99.90;;;;;;5054524;28;20032;-70
2023/06/11 10:21:01;;;;;;;1999.90;999.90;;;10.30;99.90;;;;;;5059175;28;20041;-73
2023/06/11 10:23:40;;;;;;;1999.90;999.90;;;10.20;99.90;;;;;;5055271;28;20146;-72
2023/06/11 10:26:12;;;;;;;1999.90;999.90;;;10.20;99.90;;;;;;5047689;28;20040;-71
2023/06/11 10:28:49;;;;;;;1999.90;999.90;;;10.10;99.90;;;;;;5060022;28;20021;-72
2023/06/11 10:31:45;;;;;;;1999.90;999.90;;;10.00;99.90;;;;;;5052591;28;20582;-71
2023/06/11 10:34:14;;;;;;;1999.90;999.90;;;9.90;99.90;;;;;;5050590;28;20549;-71
2023/06/11 10:36:42;;;;;;;1999.90;999.90;;;9.80;99.90;;;;;;5060089;28;20063;-70
2023/06/11 10:39:20;;;;;;;1999.90;999.90;;;9.80;99.90;;;;;;5057763;28;20150;-71
2023/06/11 10:41:58;;;;;;;1999.90;999.90;;;9.70;99.90;;;;;;5056729;28;20068;-71
2023/06/11 10:44:25;;;;;;;1999.90;999.90;;;9.70;99.90;;;;;;5059811;28;20033;-73
2023/06/11 10:46:54;;;;;;;1999.90;999.90;;;9.60;99.90;;;;;;5055906;28;20085;-72
2023/06/11 10:49:27;;;;;;;1999.90;999.90;;;9.60;99.90;;;;;;5063058;28;20067;-72
2023/06/11 10:51:55;;;;;;;1999.90;999.90;;;9.50;99.90;;;;;;5066608;28;20028;-72
2023/06/11 10:54:34;;;;;;;1999.90;999.90;;;9.50;99.90;;;;;;5059752;28;20425;-72
2023/06/11 10:57:02;;;;;;;1999.90;999.90;;;9.40;99.90;;;;;;5049445;28;20459;-70
2023/06/11 10:59:31;;;;;;;1999.90;999.90;;;9.40;99.90;;;;;;5057213;28;20035;-70
2023/06/11 11:01:59;;;;;;;1999.90;999.90;;;9.40;99.90;;;;;;5060057;28;20132;-70
2023/06/11 11:04:26;;;;;;;1999.90;999.90;;;9.40;99.90;;;;;;5058131;28;20509;-70
2023/06/11 11:07:09;;;;;;;1999.90;999.90;;;9.20;99.90;;;;;;5059501;28;20040;-68
2023/06/11 11:09:37;;;;;;;1999.90;999.90;;;9.20;99.90;;;;;;5057161;28;20017;-70
2023/06/11 11:12:05;;;;;;;1999.90;999.90;;;9.10;99.90;;;;;;5054674;28;20115;-71
2023/06/11 11:14:34;;;;;;;1999.90;999.90;;;9.00;99.90;;;;;;5061478;28;20036;-71
2023/06/11 11:17:01;;;;;;;1999.90;999.90;;;9.00;99.90;;;;;;5054343;28;20020;-70
2023/06/11 11:19:30;;;;;;;1999.90;999.90;;;8.90;99.90;;;;;;5056213;28;20805;-73
2023/06/11 11:21:59;;;;;;;1999.90;999.90;;;8.90;99.90;;;;;;5052718;28;20036;-72
2023/06/11 11:24:27;;;;;;;1999.90;999.90;;;8.90;99.90;;;;;;5054904;28;20021;-71
2023/06/11 11:26:55;;;;;;;1999.90;999.90;;;8.80;99.90;;;;;;5052707;28;20178;-72
2023/06/11 11:29:22;;;;;;;1999.90;999.90;;;8.80;99.90;;;;;;5051065;28;20031;-71
2023/06/11 11:31:50;;;;;;;1999.90;999.90;;;8.80;99.90;;;;;;5053439;28;20029;-71
2023/06/11 11:34:19;;;;;;;1999.90;999.90;;;8.70;99.90;;;;;;5064912;28;20028;-70
2023/06/11 11:36:46;;;;;;;1999.90;999.90;;;8.70;99.90;;;;;;5063457;28;20028;-71
2023/06/11 11:39:14;;;;;;;1999.90;999.90;;;8.70;99.90;;;;;;5065408;28;20103;-72
2023/06/11 11:41:49;;;;;;;1999.90;999.90;;;8.60;99.90;;;;;;5062276;28;20442;-71
2023/06/11 11:44:17;;;;;;;1999.90;999.90;;;8.60;99.90;;;;;;5062651;28;20475;-71
2023/06/11 11:46:45;;;;;;;1999.90;999.90;;;8.50;99.90;;;;;;5054238;28;20037;-69
2023/06/11 11:49:13;;;;;;;1999.90;999.90;;;8.50;99.90;;;;;;5056754;28;20022;-69
2023/06/11 11:51:45;;;;;;;1999.90;999.90;;;8.50;99.90;;;;;;5057835;28;20095;-69
2023/06/11 11:54:13;;;;;;;1999.90;999.90;;;8.50;99.90;;;;;;5055420;28;20029;-70
2023/06/11 11:56:41;;;;;;;1999.90;999.90;;;8.50;99.90;;;;;;5055491;28;20449;-72
2023/06/11 11:59:22;;;;;;;1999.90;999.90;;;8.50;99.90;;;;;;5053777;28;20124;-70
2023/06/11 12:02:02;;;;;;;1999.90;999.90;;;8.50;99.90;;;;;;5043631;28;20033;-71
2023/06/11 12:04:42;;;;;;;1999.90;999.90;;;8.50;99.90;;;;;;5052365;28;20020;-72
2023/06/11 12:07:20;;;;;;;1999.90;999.90;;;8.50;99.90;;;;;;5053431;28;20037;-71
2023/06/11 12:09:47;;;;;;;1999.90;999.90;;;8.50;99.90;;;;;;5055940;28;20033;-70